GEML

Melilla Airport

Melilla, Spain
METAR GEML 151830Z AUTO 08010KT 050V120 9999 FEW015/// SCT022/// 15/11 Q1024
Observed Flight Rules
Feb-15 @ 18:30 UTC (37 minutes ago) Visual Flight Rules
Wind Visibility Clouds
80° at 10 knots 10,000+ meters
  • Few at 1,500' AGL
  • Scattered at 2,200' AGL
Temperatures Readings
Current 15°C / 59°F
Dewpoint 11°C / 52°F
Humidity 77%
Altimeter 30.24" Hg
Pressure 1023.92 hPa
Elevation 55
METAR GEML 151830Z AUTO 08010KT 050V120 9999 FEW015/// SCT022/// 15/11 Q1024
Observed Flight Rules
Feb-15 @ 18:30 UTC
(37 minutes ago)
VFR
Wind Visibility
80° at 10 knots 10,000+ meters
Clouds
  • Few at 1,500' AGL
  • Scattered at 2,200' AGL
Temperature Dewpoint
15°C / 59°F 11°C / 52°F
Humidity Altimeter Pressure
77% 30.24" Hg 1023.92 hPa